Time;durP1;ratioP1;P1;durP2;ratioP2;P2;SDS_P1;SDS_P2;PMS_P1;PMS_P2;Temp;Humidity;BMP_temperature;BMP_pressure;BME280_temperature;BME280_humidity;BME280_pressure;Samples;Min_cycle;Max_cycle;Signal;HPM_P1;HPM_P2
2024/01/24 00:00:50;;;;;;;0.93;0.43;;;13.80;99.90;;;;;;5037444;28;20194;-69
2024/01/24 00:03:16;;;;;;;0.30;0.30;;;13.90;99.90;;;;;;5037901;28;20174;-69
2024/01/24 00:05:44;;;;;;;0.45;0.30;;;13.90;99.90;;;;;;5037248;28;20197;-69
2024/01/24 00:08:12;;;;;;;0.55;0.40;;;13.90;99.90;;;;;;5037677;28;20182;-69
2024/01/24 00:10:38;;;;;;;0.38;0.20;;;13.90;99.90;;;;;;5037566;28;20198;-69
2024/01/24 00:13:04;;;;;;;1.75;0.50;;;14.00;99.90;;;;;;5037232;28;20216;-69
2024/01/24 00:15:29;;;;;;;0.70;0.40;;;13.90;99.90;;;;;;5037670;28;20173;-69
2024/01/24 00:17:55;;;;;;;0.43;0.30;;;14.00;99.90;;;;;;5037497;28;20239;-69
2024/01/24 00:20:22;;;;;;;0.38;0.30;;;14.10;99.90;;;;;;5037442;28;20189;-69
2024/01/24 00:22:53;;;;;;;0.60;0.20;;;14.00;99.90;;;;;;5037576;28;20201;-69
2024/01/24 00:25:18;;;;;;;0.57;0.30;;;14.10;99.90;;;;;;5037395;28;20186;-69
2024/01/24 00:27:47;;;;;;;1.48;0.40;;;14.10;99.90;;;;;;5037595;28;20221;-69
2024/01/24 00:30:12;;;;;;;0.63;0.30;;;14.10;99.90;;;;;;5037056;28;20216;-70
2024/01/24 00:32:38;;;;;;;1.40;0.40;;;14.10;99.90;;;;;;5027939;28;20218;-69
2024/01/24 00:35:09;;;;;;;0.35;0.22;;;14.10;99.90;;;;;;5031115;28;20292;-69
2024/01/24 00:37:34;;;;;;;0.30;0.20;;;14.10;99.90;;;;;;5037358;28;20198;-68
2024/01/24 00:40:00;;;;;;;0.40;0.25;;;14.10;99.90;;;;;;5036597;28;20483;-69
2024/01/24 00:42:25;;;;;;;0.38;0.28;;;14.10;99.90;;;;;;5037327;28;20181;-69
2024/01/24 00:44:51;;;;;;;1.05;0.40;;;14.10;99.90;;;;;;5036540;28;20186;-68
2024/01/24 00:47:22;;;;;;;1.67;0.50;;;14.10;99.90;;;;;;5036905;28;20181;-68
2024/01/24 00:49:52;;;;;;;0.65;0.22;;;14.20;99.90;;;;;;5036639;28;20229;-68
2024/01/24 00:52:17;;;;;;;1.10;0.28;;;14.20;99.90;;;;;;5037182;28;20163;-69
2024/01/24 00:54:43;;;;;;;0.30;0.20;;;14.20;99.90;;;;;;5033152;28;20170;-69
2024/01/24 00:57:09;;;;;;;0.55;0.30;;;14.20;99.90;;;;;;5027389;28;20253;-66
2024/01/24 00:59:36;;;;;;;0.82;0.52;;;14.20;99.90;;;;;;5036736;28;20198;-69
2024/01/24 01:02:02;;;;;;;0.40;0.40;;;14.30;99.90;;;;;;5021886;28;20178;-69
2024/01/24 01:04:28;;;;;;;0.50;0.30;;;14.30;99.90;;;;;;5017443;28;20285;-69
2024/01/24 01:06:56;;;;;;;0.47;0.40;;;14.30;99.90;;;;;;5036717;28;20185;-70
2024/01/24 01:09:21;;;;;;;0.38;0.30;;;14.30;99.90;;;;;;5036416;28;20214;-69
2024/01/24 01:11:47;;;;;;;1.17;0.40;;;14.30;99.90;;;;;;5036403;28;20193;-70
2024/01/24 01:14:13;;;;;;;0.70;0.43;;;14.30;99.90;;;;;;5035297;28;20177;-68
2024/01/24 01:16:41;;;;;;;1.50;0.50;;;14.30;99.90;;;;;;5036539;28;20177;-66
2024/01/24 01:19:09;;;;;;;0.98;0.47;;;14.40;99.90;;;;;;5036099;28;20182;-69
2024/01/24 01:21:35;;;;;;;0.55;0.40;;;14.40;99.90;;;;;;5037024;28;20288;-69
2024/01/24 01:24:00;;;;;;;0.52;0.30;;;14.40;99.90;;;;;;5036513;28;20268;-69
2024/01/24 01:26:33;;;;;;;1.20;0.50;;;14.40;99.90;;;;;;5035607;28;20237;-68
2024/01/24 01:28:58;;;;;;;1.75;0.68;;;14.40;99.90;;;;;;5036357;28;20197;-69
2024/01/24 01:31:26;;;;;;;0.82;0.40;;;14.40;99.90;;;;;;5036018;28;20287;-69
2024/01/24 01:33:52;;;;;;;0.70;0.47;;;14.40;99.90;;;;;;5022268;28;20189;-69
2024/01/24 01:36:20;;;;;;;0.75;0.40;;;14.40;99.90;;;;;;5036548;28;20198;-69
2024/01/24 01:38:45;;;;;;;0.40;0.40;;;14.50;99.90;;;;;;5035386;28;20197;-68
2024/01/24 01:41:11;;;;;;;0.55;0.40;;;14.50;99.90;;;;;;5035953;28;20221;-69
2024/01/24 01:43:41;;;;;;;0.77;0.52;;;14.50;99.90;;;;;;5035800;28;20241;-68
2024/01/24 01:46:13;;;;;;;2.72;0.60;;;14.50;99.90;;;;;;5032291;28;20186;-69
2024/01/24 01:48:39;;;;;;;0.85;0.47;;;14.50;99.90;;;;;;5016103;28;20177;-69
2024/01/24 01:51:06;;;;;;;0.70;0.47;;;14.50;99.90;;;;;;5031236;28;20285;-69
2024/01/24 01:53:38;;;;;;;1.48;0.55;;;14.50;99.90;;;;;;5035846;28;20174;-69
2024/01/24 01:56:10;;;;;;;1.52;0.60;;;14.60;99.90;;;;;;5034860;28;20178;-70
2024/01/24 01:58:37;;;;;;;1.35;0.60;;;14.60;99.90;;;;;;5024210;28;20408;-68
2024/01/24 02:01:07;;;;;;;1.10;0.50;;;14.60;99.90;;;;;;5035625;28;20178;-69
2024/01/24 02:03:35;;;;;;;1.58;0.55;;;14.60;99.90;;;;;;5033569;28;20194;-69
2024/01/24 02:06:01;;;;;;;0.90;0.50;;;14.60;99.90;;;;;;5015909;28;20190;-70
2024/01/24 02:08:27;;;;;;;0.63;0.63;;;14.70;99.90;;;;;;5025808;28;20236;-69
2024/01/24 02:10:55;;;;;;;0.55;0.55;;;14.70;99.90;;;;;;5035236;28;20221;-68
2024/01/24 02:13:21;;;;;;;0.68;0.55;;;14.70;99.90;;;;;;5035408;28;20198;-70
2024/01/24 02:15:47;;;;;;;2.50;0.80;;;14.80;99.90;;;;;;5032008;28;20247;-69
2024/01/24 02:18:15;;;;;;;1.08;0.65;;;14.80;99.90;;;;;;5015448;28;20256;-70
2024/01/24 02:20:41;;;;;;;1.77;0.90;;;14.80;99.90;;;;;;5015883;28;20195;-68
2024/01/24 02:23:11;;;;;;;1.17;0.70;;;14.90;99.90;;;;;;5033872;28;20192;-69
2024/01/24 02:25:37;;;;;;;1.48;0.68;;;14.90;99.90;;;;;;5035014;28;20174;-70
2024/01/24 02:28:05;;;;;;;1.02;0.70;;;14.90;99.90;;;;;;5031461;28;20305;-68
2024/01/24 02:30:30;;;;;;;1.75;0.70;;;15.00;99.90;;;;;;5031949;28;20201;-68
2024/01/24 02:32:57;;;;;;;1.13;0.80;;;15.00;99.90;;;;;;5031924;28;20174;-69
2024/01/24 02:35:27;;;;;;;1.05;0.63;;;15.00;99.90;;;;;;5034434;28;20196;-68
2024/01/24 02:37:55;;;;;;;1.98;0.85;;;15.00;99.90;;;;;;5035241;28;20171;-68
2024/01/24 02:40:21;;;;;;;1.48;0.73;;;15.10;99.90;;;;;;5035039;28;20198;-69
2024/01/24 02:42:46;;;;;;;1.67;0.75;;;15.10;99.90;;;;;;5034676;28;20188;-68
2024/01/24 02:45:15;;;;;;;1.10;0.73;;;15.10;99.90;;;;;;5034884;28;20205;-69
2024/01/24 02:47:43;;;;;;;1.52;0.85;;;15.20;99.90;;;;;;5035048;28;20192;-68
2024/01/24 02:50:14;;;;;;;1.38;0.88;;;15.20;99.90;;;;;;5032885;28;20221;-68
2024/01/24 02:52:42;;;;;;;1.75;0.75;;;15.20;99.90;;;;;;5027212;28;20174;-66
2024/01/24 02:55:12;;;;;;;2.00;0.80;;;15.30;99.90;;;;;;5034284;28;20174;-69
2024/01/24 02:57:38;;;;;;;1.23;0.80;;;15.30;99.90;;;;;;5034857;28;20165;-69
2024/01/24 03:00:07;;;;;;;1.23;0.60;;;15.30;99.90;;;;;;5034432;28;20277;-70
2024/01/24 03:02:33;;;;;;;1.45;0.80;;;15.40;99.90;;;;;;5034219;28;20209;-69
2024/01/24 03:04:58;;;;;;;1.10;0.80;;;15.40;99.90;;;;;;5034595;28;20213;-68
2024/01/24 03:07:24;;;;;;;1.85;0.98;;;15.40;99.90;;;;;;5025984;28;20179;-70
2024/01/24 03:09:50;;;;;;;1.15;0.73;;;15.50;99.90;;;;;;5034394;28;20217;-68
2024/01/24 03:12:15;;;;;;;1.00;0.70;;;15.50;99.90;;;;;;5034266;28;20228;-69
2024/01/24 03:14:41;;;;;;;2.10;0.90;;;15.50;99.90;;;;;;5034150;28;20285;-69
2024/01/24 03:17:07;;;;;;;0.90;0.68;;;15.50;99.90;;;;;;5034087;28;20197;-68
2024/01/24 03:19:33;;;;;;;1.27;0.70;;;15.60;99.90;;;;;;5034411;28;20173;-69
2024/01/24 03:22:00;;;;;;;1.88;0.85;;;15.60;99.90;;;;;;5034148;28;20182;-67
2024/01/24 03:24:30;;;;;;;1.23;0.47;;;15.60;99.90;;;;;;5034233;28;20237;-69
2024/01/24 03:26:58;;;;;;;1.52;0.75;;;15.60;99.90;;;;;;5033802;28;20182;-68
2024/01/24 03:29:23;;;;;;;1.02;0.60;;;15.60;99.90;;;;;;5034115;28;20233;-68
2024/01/24 03:31:49;;;;;;;1.25;0.70;;;15.70;99.90;;;;;;5034229;28;20166;-69
2024/01/24 03:34:18;;;;;;;0.90;0.60;;;15.70;99.90;;;;;;5033861;28;20182;-68
2024/01/24 03:36:43;;;;;;;1.27;0.60;;;15.70;99.90;;;;;;5033861;28;20205;-69
2024/01/24 03:39:09;;;;;;;0.57;0.40;;;15.80;99.90;;;;;;5033699;28;20205;-68
2024/01/24 03:41:37;;;;;;;0.40;0.40;;;15.80;99.90;;;;;;5033984;28;20184;-68
2024/01/24 03:44:05;;;;;;;0.73;0.50;;;15.80;99.90;;;;;;5033488;28;20205;-69
2024/01/24 03:46:31;;;;;;;0.50;0.45;;;15.80;99.90;;;;;;5034077;28;20182;-67
2024/01/24 03:48:56;;;;;;;0.85;0.50;;;15.80;99.90;;;;;;5033901;28;20433;-65
2024/01/24 03:51:25;;;;;;;0.93;0.52;;;15.80;99.90;;;;;;5033991;28;20396;-68
2024/01/24 03:53:52;;;;;;;1.25;0.50;;;15.80;99.90;;;;;;5034127;28;20188;-69
2024/01/24 03:56:18;;;;;;;0.55;0.40;;;15.90;99.90;;;;;;5033688;28;20339;-69
2024/01/24 03:58:43;;;;;;;0.63;0.50;;;15.90;99.90;;;;;;5034087;28;20174;-68
2024/01/24 04:01:10;;;;;;;0.50;0.30;;;15.90;99.90;;;;;;5033839;28;20208;-68
2024/01/24 04:03:36;;;;;;;0.25;0.25;;;15.90;99.90;;;;;;5033747;28;20170;-69
2024/01/24 04:06:04;;;;;;;0.73;0.30;;;15.90;99.90;;;;;;5034073;28;20268;-69
2024/01/24 04:08:31;;;;;;;0.35;0.30;;;16.00;99.90;;;;;;5033418;28;20182;-69
2024/01/24 04:10:59;;;;;;;0.50;0.25;;;16.00;99.90;;;;;;5033537;28;20248;-70
2024/01/24 04:13:25;;;;;;;0.55;0.35;;;16.00;99.90;;;;;;5034105;28;20170;-69
2024/01/24 04:15:53;;;;;;;0.30;0.20;;;16.00;99.90;;;;;;5030237;28;20195;-69
2024/01/24 04:18:18;;;;;;;0.10;0.10;;;16.00;99.90;;;;;;5015947;28;20218;-67
2024/01/24 04:20:44;;;;;;;0.52;0.20;;;16.00;99.90;;;;;;5037114;28;20207;-68
2024/01/24 04:23:11;;;;;;;1.75;0.20;;;16.10;99.90;;;;;;5037764;28;20182;-68
2024/01/24 04:25:37;;;;;;;0.43;0.20;;;16.00;99.90;;;;;;5035401;28;20182;-69
2024/01/24 04:28:03;;;;;;;0.30;0.20;;;16.00;99.90;;;;;;5033107;28;20202;-69
2024/01/24 04:30:31;;;;;;;0.17;0.10;;;16.00;99.90;;;;;;5037131;28;20311;-68
2024/01/24 04:32:56;;;;;;;0.13;0.13;;;16.10;99.90;;;;;;5037314;28;20174;-69
2024/01/24 04:35:22;;;;;;;0.32;0.20;;;16.10;99.90;;;;;;5037267;28;20177;-70
2024/01/24 04:37:47;;;;;;;0.40;0.20;;;16.10;99.90;;;;;;5036926;28;20193;-68
2024/01/24 04:40:13;;;;;;;0.20;0.20;;;16.10;99.90;;;;;;5036590;28;20235;-68
2024/01/24 04:42:39;;;;;;;0.10;0.10;;;16.20;99.90;;;;;;5037031;28;20229;-69
2024/01/24 04:45:05;;;;;;;0.10;0.10;;;16.10;99.90;;;;;;5037075;28;20173;-69
2024/01/24 04:47:33;;;;;;;0.10;0.10;;;16.20;99.90;;;;;;5036702;28;20209;-69
2024/01/24 04:50:01;;;;;;;0.20;0.20;;;16.20;99.90;;;;;;5036718;28;20190;-69
2024/01/24 04:52:29;;;;;;;0.20;0.20;;;16.20;99.90;;;;;;5036864;28;20181;-68
2024/01/24 04:54:57;;;;;;;0.10;0.10;;;16.20;99.90;;;;;;5036579;28;20180;-69
2024/01/24 04:57:23;;;;;;;0.20;0.10;;;16.20;99.90;;;;;;5036729;28;20210;-69
2024/01/24 04:59:48;;;;;;;0.10;0.10;;;16.30;99.90;;;;;;5036795;28;20192;-69
2024/01/24 05:02:19;;;;;;;0.25;0.10;;;16.30;99.90;;;;;;5036480;28;20289;-69
2024/01/24 05:04:45;;;;;;;0.20;0.20;;;16.30;99.90;;;;;;5017226;28;20179;-69
2024/01/24 05:07:11;;;;;;;0.20;0.10;;;16.30;99.90;;;;;;5031403;28;20204;-69
2024/01/24 05:09:39;;;;;;;0.35;0.10;;;16.30;99.90;;;;;;5036350;28;20206;-69
2024/01/24 05:12:04;;;;;;;0.20;0.10;;;16.30;99.90;;;;;;5036428;28;20181;-69
2024/01/24 05:14:30;;;;;;;0.10;0.10;;;16.40;99.90;;;;;;5036159;28;20202;-70
2024/01/24 05:16:58;;;;;;;0.30;0.30;;;16.40;99.90;;;;;;5032536;28;20201;-68
2024/01/24 05:19:26;;;;;;;0.10;0.10;;;16.40;99.90;;;;;;5028912;28;20218;-71
2024/01/24 05:21:54;;;;;;;0.30;0.15;;;16.40;99.90;;;;;;5036424;28;20177;-69
2024/01/24 05:24:19;;;;;;;0.25;0.20;;;16.40;99.90;;;;;;5035455;28;20245;-69
2024/01/24 05:26:47;;;;;;;1.13;0.20;;;16.40;99.90;;;;;;5036023;28;20208;-70
2024/01/24 05:29:13;;;;;;;0.10;0.10;;;16.30;99.90;;;;;;5032148;28;20225;-69
2024/01/24 05:31:38;;;;;;;0.25;0.13;;;16.40;99.90;;;;;;5016886;28;20175;-70
2024/01/24 05:34:08;;;;;;;1.13;0.17;;;16.30;99.90;;;;;;5027785;28;20174;-69
2024/01/24 05:36:34;;;;;;;0.43;0.28;;;16.30;99.90;;;;;;5035851;28;20534;-69
2024/01/24 05:39:03;;;;;;;0.32;0.30;;;16.30;99.90;;;;;;5035791;28;20170;-70
2024/01/24 05:41:30;;;;;;;1.23;0.40;;;16.30;99.90;;;;;;5034772;28;20194;-70
2024/01/24 05:43:56;;;;;;;0.22;0.20;;;16.30;99.90;;;;;;5018989;28;20177;-70
2024/01/24 05:46:22;;;;;;;0.20;0.20;;;16.30;99.90;;;;;;5036213;28;20202;-69
2024/01/24 05:48:47;;;;;;;0.90;0.20;;;16.30;99.90;;;;;;5035581;28;20249;-65
2024/01/24 05:51:15;;;;;;;0.70;0.30;;;16.20;99.90;;;;;;5035465;28;20213;-68
2024/01/24 05:53:41;;;;;;;0.50;0.30;;;16.20;99.90;;;;;;5035507;28;20170;-70
2024/01/24 05:56:12;;;;;;;0.35;0.20;;;16.20;99.90;;;;;;5034731;28;20174;-68
2024/01/24 05:58:37;;;;;;;0.40;0.30;;;16.20;99.90;;;;;;5035696;28;20162;-69
2024/01/24 06:01:05;;;;;;;0.32;0.20;;;16.10;99.90;;;;;;5035426;28;20188;-68
2024/01/24 06:03:33;;;;;;;0.40;0.30;;;16.10;99.90;;;;;;5032416;28;20441;-68
2024/01/24 06:05:59;;;;;;;0.77;0.30;;;16.10;99.90;;;;;;5018296;28;20175;-69
2024/01/24 06:08:24;;;;;;;0.65;0.32;;;16.00;99.90;;;;;;5035244;28;20205;-69
2024/01/24 06:10:50;;;;;;;0.70;0.30;;;16.00;99.90;;;;;;5035416;28;20258;-69
2024/01/24 06:13:18;;;;;;;1.50;0.30;;;15.90;99.90;;;;;;5035390;28;20391;-69
2024/01/24 06:15:44;;;;;;;0.50;0.32;;;15.90;99.90;;;;;;5035105;28;20189;-68
2024/01/24 06:18:09;;;;;;;0.43;0.20;;;15.80;99.90;;;;;;5034873;28;20214;-69
2024/01/24 06:20:35;;;;;;;2.80;0.70;;;15.80;99.90;;;;;;5035186;28;20174;-68
2024/01/24 06:23:05;;;;;;;3.05;1.05;;;15.80;99.90;;;;;;5033821;28;20209;-68
2024/01/24 06:25:31;;;;;;;5.30;1.00;;;15.70;99.90;;;;;;5019278;28;20167;-70
2024/01/24 06:27:59;;;;;;;5.72;1.30;;;15.70;99.90;;;;;;5035077;28;20483;-67
2024/01/24 06:30:24;;;;;;;3.65;1.23;;;15.60;99.90;;;;;;5034612;28;20207;-69
2024/01/24 06:32:51;;;;;;;4.72;1.50;;;15.60;99.90;;;;;;5034962;28;20176;-69
2024/01/24 06:35:17;;;;;;;3.35;1.50;;;15.60;99.90;;;;;;5035161;28;20261;-68
2024/01/24 06:37:42;;;;;;;5.53;1.38;;;15.50;99.90;;;;;;5034084;28;20270;-69
2024/01/24 06:40:10;;;;;;;3.92;1.02;;;15.50;99.90;;;;;;5034243;28;20205;-70
2024/01/24 06:42:37;;;;;;;4.78;1.30;;;15.50;99.90;;;;;;5033344;28;20212;-69
2024/01/24 06:45:06;;;;;;;3.33;1.42;;;15.50;99.90;;;;;;5014627;28;20198;-68
2024/01/24 06:47:31;;;;;;;4.82;0.85;;;15.30;99.90;;;;;;5014787;28;20205;-69
2024/01/24 06:49:57;;;;;;;4.03;1.15;;;15.30;99.90;;;;;;5014400;28;20379;-69
2024/01/24 06:52:23;;;;;;;3.33;1.23;;;15.30;99.90;;;;;;5029586;28;20186;-69
2024/01/24 06:54:48;;;;;;;3.70;1.13;;;15.20;99.90;;;;;;5034238;28;20181;-71
2024/01/24 06:57:14;;;;;;;3.53;1.10;;;15.20;99.90;;;;;;5034762;28;20206;-70
2024/01/24 06:59:40;;;;;;;4.53;1.30;;;15.20;99.90;;;;;;5034283;28;20188;-69
2024/01/24 07:02:08;;;;;;;6.20;1.48;;;15.10;99.90;;;;;;5034173;28;20169;-68
2024/01/24 07:04:33;;;;;;;5.88;1.63;;;15.10;99.90;;;;;;5034549;28;20231;-69
2024/01/24 07:07:01;;;;;;;5.80;1.60;;;15.10;99.90;;;;;;5034167;28;20178;-70
2024/01/24 07:09:27;;;;;;;6.60;2.03;;;15.10;99.90;;;;;;5034344;28;20197;-70
2024/01/24 07:11:52;;;;;;;5.15;1.80;;;15.00;99.90;;;;;;5033830;28;20204;-67
2024/01/24 07:14:18;;;;;;;8.02;1.92;;;15.00;99.90;;;;;;5034878;28;20231;-70
2024/01/24 07:16:47;;;;;;;7.88;2.05;;;15.00;99.90;;;;;;5034183;28;20355;-69
2024/01/24 07:19:12;;;;;;;4.47;1.70;;;15.00;99.90;;;;;;5034069;28;20180;-69
2024/01/24 07:21:39;;;;;;;6.22;1.73;;;14.90;99.90;;;;;;5034982;28;20198;-70
2024/01/24 07:24:07;;;;;;;5.43;1.48;;;14.90;99.90;;;;;;5033871;28;20261;-70
2024/01/24 07:26:37;;;;;;;4.85;1.60;;;14.90;99.90;;;;;;5023923;28;20170;-70
2024/01/24 07:29:03;;;;;;;6.28;1.60;;;14.90;99.90;;;;;;5033849;28;20272;-69
2024/01/24 07:31:29;;;;;;;7.70;1.95;;;14.90;99.90;;;;;;5034116;28;20277;-70
2024/01/24 07:33:54;;;;;;;7.95;2.10;;;14.80;99.90;;;;;;5033963;28;20231;-69
2024/01/24 07:36:22;;;;;;;7.90;2.15;;;14.90;99.90;;;;;;5033980;28;20333;-68
2024/01/24 07:38:48;;;;;;;7.78;2.63;;;14.80;99.90;;;;;;5030399;28;20235;-69
2024/01/24 07:41:14;;;;;;;8.10;2.60;;;14.70;99.90;;;;;;5023830;28;20184;-66
2024/01/24 07:43:40;;;;;;;10.25;2.30;;;14.80;99.90;;;;;;5033799;28;20209;-67
2024/01/24 07:46:06;;;;;;;13.55;2.60;;;14.80;99.90;;;;;;5030241;28;20175;-68
2024/01/24 07:48:34;;;;;;;7.05;2.30;;;14.70;99.90;;;;;;5021434;28;20193;-68
2024/01/24 07:50:59;;;;;;;6.65;2.15;;;14.70;99.90;;;;;;5033808;28;20190;-71
2024/01/24 07:53:25;;;;;;;12.02;2.55;;;14.70;99.90;;;;;;5033829;28;20200;-67
2024/01/24 07:55:53;;;;;;;9.40;2.67;;;14.60;99.90;;;;;;5037553;28;20162;-69
2024/01/24 07:58:21;;;;;;;12.85;3.20;;;14.60;99.90;;;;;;5037518;28;20189;-68
2024/01/24 08:00:46;;;;;;;12.80;2.95;;;14.60;99.90;;;;;;5037252;28;20194;-66
2024/01/24 08:03:12;;;;;;;13.07;2.53;;;14.60;99.90;;;;;;5018050;28;20286;-68
2024/01/24 08:05:37;;;;;;;13.13;3.17;;;14.60;99.90;;;;;;5017954;28;20174;-64
2024/01/24 08:08:03;;;;;;;9.02;2.67;;;14.60;99.90;;;;;;5025141;28;20173;-69
2024/01/24 08:10:34;;;;;;;10.50;2.72;;;14.50;99.90;;;;;;5033857;28;20221;-68
2024/01/24 08:13:02;;;;;;;8.50;2.55;;;14.50;99.90;;;;;;5017913;28;20159;-69
2024/01/24 08:15:28;;;;;;;9.07;2.40;;;14.50;99.90;;;;;;5037658;28;20194;-68
2024/01/24 08:17:56;;;;;;;8.95;2.60;;;14.60;99.90;;;;;;5029479;28;20194;-69
2024/01/24 08:20:22;;;;;;;8.98;2.42;;;14.50;99.90;;;;;;5018216;28;20199;-71
2024/01/24 08:22:48;;;;;;;10.77;2.75;;;14.60;99.90;;;;;;5043343;28;20169;-70
2024/01/24 08:25:14;;;;;;;11.80;3.00;;;14.60;99.90;;;;;;5037159;28;20436;-68
2024/01/24 08:27:40;;;;;;;9.18;2.40;;;14.50;99.90;;;;;;5041041;28;20196;-70
2024/01/24 08:30:08;;;;;;;14.32;2.72;;;14.60;99.90;;;;;;5039355;28;20277;-67
2024/01/24 08:32:40;;;;;;;12.05;2.78;;;14.50;99.90;;;;;;5033262;28;20170;-69
2024/01/24 08:35:05;;;;;;;12.05;3.22;;;14.50;99.90;;;;;;5019397;28;20165;-69
2024/01/24 08:37:31;;;;;;;13.73;3.05;;;14.50;99.90;;;;;;5036997;28;20166;-68
2024/01/24 08:39:56;;;;;;;11.95;3.33;;;14.50;99.90;;;;;;5036595;28;20251;-66
2024/01/24 08:42:22;;;;;;;14.98;3.05;;;14.50;99.90;;;;;;5036811;28;20201;-69
2024/01/24 08:44:48;;;;;;;10.82;2.95;;;14.50;99.90;;;;;;5037063;28;20186;-69
2024/01/24 08:47:16;;;;;;;10.52;3.30;;;14.50;99.90;;;;;;5036796;28;20220;-68
2024/01/24 08:49:43;;;;;;;12.05;3.13;;;14.50;99.90;;;;;;5037060;28;20236;-69
2024/01/24 08:52:09;;;;;;;9.05;2.85;;;14.50;99.90;;;;;;5036588;28;20255;-68
2024/01/24 08:54:37;;;;;;;13.18;2.95;;;14.40;99.90;;;;;;5036734;28;20174;-69
2024/01/24 08:57:06;;;;;;;11.60;3.30;;;14.40;99.90;;;;;;5036850;28;20279;-69
2024/01/24 08:59:31;;;;;;;9.60;3.00;;;14.40;99.90;;;;;;5049372;28;20201;-70
2024/01/24 09:01:57;;;;;;;13.40;3.22;;;14.40;99.90;;;;;;5056565;28;20217;-70
2024/01/24 09:04:24;;;;;;;13.77;3.70;;;14.40;99.90;;;;;;5044923;28;20179;-70
2024/01/24 09:06:49;;;;;;;12.98;4.00;;;14.40;99.90;;;;;;5016743;28;20174;-69
2024/01/24 09:09:15;;;;;;;11.40;3.55;;;14.40;99.90;;;;;;5018269;28;20185;-70
2024/01/24 09:11:41;;;;;;;14.55;3.58;;;14.40;99.90;;;;;;5036468;28;20174;-69
2024/01/24 09:14:09;;;;;;;9.75;2.72;;;14.50;99.90;;;;;;5036158;28;20449;-71
2024/01/24 09:16:37;;;;;;;14.48;3.95;;;14.50;99.90;;;;;;5035825;28;20232;-68
2024/01/24 09:19:05;;;;;;;15.35;3.63;;;14.50;99.90;;;;;;5016429;28;20305;-67
2024/01/24 09:21:33;;;;;;;18.30;3.85;;;14.50;99.90;;;;;;5016677;28;20178;-69
2024/01/24 09:23:58;;;;;;;16.52;3.75;;;14.50;99.90;;;;;;5020213;28;20203;-69
2024/01/24 09:26:24;;;;;;;9.30;3.33;;;14.50;99.90;;;;;;5035879;28;20181;-70
2024/01/24 09:28:54;;;;;;;16.25;3.83;;;14.60;99.90;;;;;;5036093;28;20194;-69
2024/01/24 09:31:20;;;;;;;14.35;3.25;;;14.60;99.90;;;;;;5031899;28;20190;-69
2024/01/24 09:33:45;;;;;;;14.07;3.75;;;14.60;99.90;;;;;;5032886;28;20221;-68
2024/01/24 09:36:13;;;;;;;13.77;4.03;;;14.60;99.90;;;;;;5036043;28;20248;-69
2024/01/24 09:38:43;;;;;;;15.00;3.63;;;14.70;99.90;;;;;;5035714;28;20244;-67
2024/01/24 09:41:17;;;;;;;13.73;3.30;;;14.70;99.90;;;;;;5027413;28;20178;-69
2024/01/24 09:43:49;;;;;;;13.85;2.97;;;14.70;99.90;;;;;;5016470;28;20217;-69
2024/01/24 09:46:16;;;;;;;13.20;3.40;;;14.70;99.90;;;;;;5017424;28;20185;-69
2024/01/24 09:48:48;;;;;;;17.80;4.05;;;14.70;99.90;;;;;;5026727;28;20189;-69
2024/01/24 09:51:17;;;;;;;13.55;3.38;;;14.70;99.90;;;;;;5031947;28;20245;-69
2024/01/24 09:53:46;;;;;;;14.00;3.42;;;14.70;99.90;;;;;;5032764;28;20174;-71
2024/01/24 09:56:17;;;;;;;13.13;3.67;;;14.70;99.90;;;;;;5032459;28;20198;-69
2024/01/24 09:58:46;;;;;;;14.20;3.13;;;14.70;99.90;;;;;;5035610;28;20195;-70
2024/01/24 10:01:14;;;;;;;14.63;4.15;;;14.70;99.90;;;;;;5035559;28;20366;-70
2024/01/24 10:03:42;;;;;;;14.70;3.58;;;14.80;99.90;;;;;;5035748;28;20174;-71
2024/01/24 10:06:11;;;;;;;13.20;3.78;;;14.80;99.90;;;;;;5035075;28;20212;-70
2024/01/24 10:08:41;;;;;;;12.38;3.20;;;14.80;99.90;;;;;;5035744;28;20315;-68
2024/01/24 10:11:09;;;;;;;10.05;3.08;;;14.80;99.90;;;;;;5035461;28;20233;-70
2024/01/24 10:13:37;;;;;;;13.77;3.53;;;14.80;99.90;;;;;;5035545;28;20166;-69
2024/01/24 10:16:05;;;;;;;12.68;3.38;;;14.80;99.90;;;;;;5035182;28;20166;-69
2024/01/24 10:18:33;;;;;;;15.10;3.38;;;14.90;99.90;;;;;;5034806;28;20181;-71
2024/01/24 10:21:03;;;;;;;14.73;3.55;;;14.90;99.90;;;;;;5035332;28;20265;-69
2024/01/24 10:23:29;;;;;;;15.88;3.65;;;14.90;99.90;;;;;;5034846;28;20206;-69
2024/01/24 10:25:55;;;;;;;14.45;3.42;;;14.80;99.90;;;;;;5034930;28;20178;-68
2024/01/24 10:28:21;;;;;;;13.68;3.50;;;14.80;99.90;;;;;;5034465;28;20217;-69
2024/01/24 10:30:48;;;;;;;15.48;4.07;;;14.80;99.90;;;;;;5035243;28;20197;-65
2024/01/24 10:33:15;;;;;;;19.00;4.22;;;14.80;99.90;;;;;;5031506;28;20198;-69
2024/01/24 10:35:42;;;;;;;13.85;4.00;;;14.70;99.90;;;;;;5015255;28;20232;-70
2024/01/24 10:38:14;;;;;;;9.65;3.33;;;14.70;99.90;;;;;;5029221;28;20202;-68
2024/01/24 10:40:40;;;;;;;13.77;3.80;;;14.70;99.90;;;;;;5014987;28;20175;-69
2024/01/24 10:43:11;;;;;;;13.55;3.85;;;14.70;99.90;;;;;;5015086;28;20171;-69
2024/01/24 10:45:42;;;;;;;11.40;3.30;;;14.70;99.90;;;;;;5020061;28;20300;-68
2024/01/24 10:48:11;;;;;;;14.30;3.60;;;14.60;99.90;;;;;;5034659;28;20174;-70
2024/01/24 10:50:41;;;;;;;12.95;3.85;;;14.60;99.90;;;;;;5034687;28;20190;-69
2024/01/24 10:53:11;;;;;;;13.13;3.83;;;14.60;99.90;;;;;;5030958;28;20268;-70
2024/01/24 10:55:37;;;;;;;15.73;3.58;;;14.60;99.90;;;;;;5017630;28;20209;-71
2024/01/24 10:58:08;;;;;;;16.13;4.10;;;14.50;99.90;;;;;;5014920;28;20205;-67
2024/01/24 11:00:34;;;;;;;20.73;4.07;;;14.50;99.90;;;;;;5032375;28;20234;-71
2024/01/24 11:03:00;;;;;;;13.48;3.92;;;14.50;99.90;;;;;;5034756;28;20194;-70
2024/01/24 11:05:32;;;;;;;14.20;3.80;;;14.50;99.90;;;;;;5034696;28;20212;-69
2024/01/24 11:08:06;;;;;;;15.40;3.55;;;14.50;99.90;;;;;;5033157;28;20213;-69
2024/01/24 11:10:43;;;;;;;15.27;3.92;;;14.50;99.90;;;;;;5034279;28;20217;-69
2024/01/24 11:13:11;;;;;;;14.48;3.88;;;14.50;99.90;;;;;;5030920;28;20209;-71
2024/01/24 11:15:40;;;;;;;18.70;5.00;;;14.40;99.90;;;;;;5024359;28;20232;-70
2024/01/24 11:18:28;;;;;;;14.73;3.85;;;14.40;99.90;;;;;;5034334;28;20186;-70
2024/01/24 11:20:56;;;;;;;15.27;3.95;;;14.40;99.90;;;;;;5014278;28;20195;-70
2024/01/24 11:23:44;;;;;;;18.67;4.30;;;14.40;99.90;;;;;;5027319;28;20252;-68
2024/01/24 11:26:11;;;;;;;14.43;3.78;;;14.40;99.90;;;;;;5021324;28;20198;-70
2024/01/24 11:28:38;;;;;;;12.50;3.83;;;14.40;99.90;;;;;;5014542;28;20209;-70
2024/01/24 11:31:06;;;;;;;16.05;4.07;;;14.40;99.90;;;;;;5014136;28;20260;-70
2024/01/24 11:33:32;;;;;;;13.32;3.63;;;14.40;99.90;;;;;;5021678;28;20261;-68
2024/01/24 11:36:14;;;;;;;14.05;3.65;;;14.40;99.90;;;;;;5034096;28;20224;-69
2024/01/24 11:38:42;;;;;;;16.02;3.42;;;14.40;99.90;;;;;;5033582;28;20162;-69
2024/01/24 11:41:10;;;;;;;17.55;3.75;;;14.40;99.90;;;;;;5033960;28;20177;-70
2024/01/24 11:43:36;;;;;;;14.02;3.42;;;14.40;99.90;;;;;;5033644;28;20202;-69
2024/01/24 11:46:06;;;;;;;15.32;3.90;;;14.40;99.90;;;;;;5028137;28;20186;-68
2024/01/24 11:48:34;;;;;;;17.55;3.70;;;14.40;99.90;;;;;;5033662;28;20223;-69
2024/01/24 11:51:02;;;;;;;12.32;3.47;;;14.40;99.90;;;;;;5033152;28;20225;-68
2024/01/24 11:53:31;;;;;;;13.27;3.72;;;14.40;99.90;;;;;;5033768;28;20193;-71
2024/01/24 11:56:02;;;;;;;17.52;4.30;;;14.40;99.90;;;;;;5034203;28;20170;-71
2024/01/24 11:58:33;;;;;;;15.07;3.78;;;14.40;99.90;;;;;;5020842;28;20199;-70
2024/01/24 12:01:01;;;;;;;15.70;3.70;;;14.40;99.90;;;;;;5032688;28;20433;-71
2024/01/24 12:03:26;;;;;;;13.20;3.50;;;14.40;99.90;;;;;;5033250;28;20197;-71
2024/01/24 12:05:55;;;;;;;14.52;4.03;;;14.50;99.90;;;;;;5033697;28;20224;-70
2024/01/24 12:08:23;;;;;;;20.92;4.57;;;14.40;99.90;;;;;;5033997;28;20217;-70
2024/01/24 12:10:49;;;;;;;13.73;3.70;;;14.50;99.90;;;;;;5034614;28;20194;-70
2024/01/24 12:13:16;;;;;;;18.45;4.25;;;14.40;99.90;;;;;;5033319;28;20184;-71
2024/01/24 12:15:42;;;;;;;16.05;3.92;;;14.40;99.90;;;;;;5033392;28;20185;-70
2024/01/24 12:18:09;;;;;;;24.77;4.85;;;14.40;99.90;;;;;;5033517;28;20196;-70
2024/01/24 12:20:36;;;;;;;14.80;3.85;;;14.40;99.90;;;;;;5052233;28;20206;-69
2024/01/24 12:23:03;;;;;;;15.90;3.92;;;14.40;99.90;;;;;;5053845;28;20173;-69
2024/01/24 12:25:32;;;;;;;14.05;3.75;;;14.40;99.90;;;;;;5054833;28;20201;-71
2024/01/24 12:28:01;;;;;;;14.70;3.55;;;14.50;99.90;;;;;;5047417;28;20198;-69
2024/01/24 12:30:32;;;;;;;14.80;4.13;;;14.60;99.90;;;;;;5033353;28;20252;-68
2024/01/24 12:33:07;;;;;;;16.85;4.30;;;14.70;99.90;;;;;;5033692;28;20182;-69
2024/01/24 12:35:35;;;;;;;14.77;3.85;;;14.80;99.90;;;;;;5033450;28;20268;-69
2024/01/24 12:38:02;;;;;;;15.25;4.32;;;15.00;99.90;;;;;;5013839;28;20237;-70
2024/01/24 12:40:29;;;;;;;12.90;4.10;;;15.10;99.90;;;;;;5015002;28;20217;-69
2024/01/24 12:42:56;;;;;;;14.98;4.13;;;15.20;99.90;;;;;;5029130;28;20217;-71